Portada
METAR-TAF:

METAR-TAF

Aeroports :

Dubbo, Austràlia

latitud: 32-12S, longitud: 148-34E, altitud: 275 m

Observació

L'informe es va fer fa 28 minuts, a les 23:30 UTC
Vent 2 kt del Oest/Sud-Oest
Temperatura 11°C
Humitat 94%
Pressió 1016 hPa
Visibilitat 10 km o més
Cel cobert a una alçada de 3600 ft

METAR: YSDU 032330Z AUTO 25002KT 9999 // OVC036 11/10 Q1016 RF00.0/000.0

Hora: 09:58 (23:58 UTC)

Pronòstic

L'informe es va fer fa 3 hores i 34 minuts, a les 20:24 UTC
Pronòstic vàlid del 03 a les 20 UTC al 04 a les 12 UTC
Vent 7 kt del Sud
Visibilitat 10 km o més
Cel ennuvolat a una alçada de 2500 ft
xàfecs de pluja
A partir de les 04 a les 0600 UTC
Vent 8 kt del Sud/Sud-Oest
Visibilitat 10 km o més
Cel ennuvolat a una alçada de 1500 ft
xàfecs de pluja
Temporalment
l' 03 a les 20 UTC al 04 a les 04 UTC
Visibilitat: 4000 m
Cel ennuvolat a una alçada de 700 ft
xàfecs de pluja

TAF: YSDU 032024Z 0320/0412 17007KT 9999 -SHRA BKN025 FM040600 21008KT 9999 -SHRA BKN015 TEMPO 0320/0404 4000 -SHRA BKN007

Observacions i pronòstics meteorològics de més de 4000 aeroports (METAR i TAF).

Les estacions disponibles són els punts grocs i vermells al mapa.

Posi el ratolí al punt desitjat per veure el nom de l'estació.

Feu clic per veure les observacions i els pronòstics meteorològics.

Per canviar el mapa: feu clic els botons verds amb una creu de color negre per apropar; al botó verd amb un guió per allunyar la imatge; o en les fletxes verdes per a mapes adjacents.


METAR-TAF: